sensor_id;sensor_type;location;lat;lon;timestamp;pressure;altitude;pressure_sealevel;temperature;humidity
51603;BME280;37954;51.980;5.850;2022-12-18T00:00:56;102513.19;;;-3.24;82.46
51603;BME280;37954;51.980;5.850;2022-12-18T00:05:08;102518.44;;;-3.24;82.76
51603;BME280;37954;51.980;5.850;2022-12-18T00:09:19;102493.66;;;-3.34;82.70
51603;BME280;37954;51.980;5.850;2022-12-18T00:13:35;102488.66;;;-3.38;82.73
51603;BME280;37954;51.980;5.850;2022-12-18T00:17:47;102502.91;;;-3.42;82.49
51603;BME280;37954;51.980;5.850;2022-12-18T00:21:58;102485.84;;;-3.49;82.82
51603;BME280;37954;51.980;5.850;2022-12-18T00:26:16;102485.91;;;-3.51;82.68
51603;BME280;37954;51.980;5.850;2022-12-18T00:30:28;102504.22;;;-3.49;82.43
51603;BME280;37954;51.980;5.850;2022-12-18T00:34:40;102479.50;;;-3.61;82.74
51603;BME280;37954;51.980;5.850;2022-12-18T00:38:54;102470.22;;;-3.67;83.13
51603;BME280;37954;51.980;5.850;2022-12-18T00:43:06;102486.97;;;-3.69;83.04
51603;BME280;37954;51.980;5.850;2022-12-18T00:47:21;102493.94;;;-3.68;83.24
51603;BME280;37954;51.980;5.850;2022-12-18T00:51:33;102499.19;;;-3.68;83.02
51603;BME280;37954;51.980;5.850;2022-12-18T00:55:45;102495.19;;;-3.75;83.17
51603;BME280;37954;51.980;5.850;2022-12-18T00:59:57;102488.00;;;-3.72;83.41
51603;BME280;37954;51.980;5.850;2022-12-18T01:04:09;102498.75;;;-3.76;83.64
51603;BME280;37954;51.980;5.850;2022-12-18T01:08:21;102511.41;;;-3.83;83.19
51603;BME280;37954;51.980;5.850;2022-12-18T01:12:33;102495.66;;;-3.83;83.75
51603;BME280;37954;51.980;5.850;2022-12-18T01:16:45;102487.94;;;-3.86;83.17
51603;BME280;37954;51.980;5.850;2022-12-18T01:20:57;102472.44;;;-3.91;83.78
51603;BME280;37954;51.980;5.850;2022-12-18T01:25:08;102467.19;;;-3.91;83.38
51603;BME280;37954;51.980;5.850;2022-12-18T01:29:20;102465.50;;;-3.92;83.63
51603;BME280;37954;51.980;5.850;2022-12-18T01:33:32;102469.44;;;-3.99;83.33
51603;BME280;37954;51.980;5.850;2022-12-18T01:37:43;102487.78;;;-3.99;83.40
51603;BME280;37954;51.980;5.850;2022-12-18T01:41:55;102488.53;;;-3.97;83.69
51603;BME280;37954;51.980;5.850;2022-12-18T01:46:17;102487.88;;;-4.00;83.72
51603;BME280;37954;51.980;5.850;2022-12-18T01:50:38;102484.56;;;-4.04;83.58
51603;BME280;37954;51.980;5.850;2022-12-18T01:54:51;102480.50;;;-4.09;83.55
51603;BME280;37954;51.980;5.850;2022-12-18T01:59:05;102498.38;;;-4.00;83.53
51603;BME280;37954;51.980;5.850;2022-12-18T02:03:20;102494.38;;;-4.07;83.44
51603;BME280;37954;51.980;5.850;2022-12-18T02:17:22;102488.06;;;-4.19;83.57
51603;BME280;37954;51.980;5.850;2022-12-18T02:21:54;102503.72;;;-4.17;83.38
51603;BME280;37954;51.980;5.850;2022-12-18T02:26:30;102488.22;;;-4.22;83.87
51603;BME280;37954;51.980;5.850;2022-12-18T02:30:47;102479.59;;;-4.24;83.72
51603;BME280;37954;51.980;5.850;2022-12-18T02:35:02;102483.91;;;-4.23;83.55
51603;BME280;37954;51.980;5.850;2022-12-18T02:39:17;102489.22;;;-4.25;83.81
51603;BME280;37954;51.980;5.850;2022-12-18T02:43:47;102491.94;;;-4.26;83.53
51603;BME280;37954;51.980;5.850;2022-12-18T02:48:02;102473.66;;;-4.28;83.52
51603;BME280;37954;51.980;5.850;2022-12-18T02:56:42;102471.38;;;-4.34;83.65
51603;BME280;37954;51.980;5.850;2022-12-18T03:05:36;102477.38;;;-4.32;83.48
51603;BME280;37954;51.980;5.850;2022-12-18T03:09:52;102479.25;;;-4.34;83.73
51603;BME280;37954;51.980;5.850;2022-12-18T03:14:06;102476.53;;;-4.32;83.42
51603;BME280;37954;51.980;5.850;2022-12-18T03:18:23;102468.84;;;-4.35;83.76
51603;BME280;37954;51.980;5.850;2022-12-18T03:22:38;102471.47;;;-4.35;83.64
51603;BME280;37954;51.980;5.850;2022-12-18T03:26:53;102467.00;;;-4.33;83.71
51603;BME280;37954;51.980;5.850;2022-12-18T03:31:07;102457.75;;;-4.40;83.79
51603;BME280;37954;51.980;5.850;2022-12-18T03:35:24;102458.44;;;-4.37;83.62
51603;BME280;37954;51.980;5.850;2022-12-18T03:39:38;102446.50;;;-4.42;83.43
51603;BME280;37954;51.980;5.850;2022-12-18T03:44:12;102439.66;;;-4.45;83.87
51603;BME280;37954;51.980;5.850;2022-12-18T03:48:37;102442.25;;;-4.45;83.80
51603;BME280;37954;51.980;5.850;2022-12-18T03:53:00;102434.25;;;-4.42;83.80
51603;BME280;37954;51.980;5.850;2022-12-18T03:57:20;102437.09;;;-4.46;83.83
51603;BME280;37954;51.980;5.850;2022-12-18T04:01:39;102434.47;;;-4.46;83.97
51603;BME280;37954;51.980;5.850;2022-12-18T04:05:54;102429.41;;;-4.49;83.76
51603;BME280;37954;51.980;5.850;2022-12-18T04:10:08;102433.91;;;-4.51;83.77
51603;BME280;37954;51.980;5.850;2022-12-18T04:14:24;102429.59;;;-4.52;84.04
51603;BME280;37954;51.980;5.850;2022-12-18T04:18:39;102436.34;;;-4.48;83.66
51603;BME280;37954;51.980;5.850;2022-12-18T04:22:52;102412.34;;;-4.57;83.56
51603;BME280;37954;51.980;5.850;2022-12-18T04:27:04;102419.28;;;-4.56;83.66
51603;BME280;37954;51.980;5.850;2022-12-18T04:31:23;102408.94;;;-4.59;83.96
51603;BME280;37954;51.980;5.850;2022-12-18T04:35:35;102405.56;;;-4.61;83.61
51603;BME280;37954;51.980;5.850;2022-12-18T04:39:46;102410.72;;;-4.59;83.78
51603;BME280;37954;51.980;5.850;2022-12-18T04:44:05;102405.47;;;-4.59;84.10
51603;BME280;37954;51.980;5.850;2022-12-18T04:48:17;102418.19;;;-4.51;84.19
51603;BME280;37954;51.980;5.850;2022-12-18T04:52:31;102414.78;;;-4.53;83.99
51603;BME280;37954;51.980;5.850;2022-12-18T04:56:43;102418.19;;;-4.51;83.95
51603;BME280;37954;51.980;5.850;2022-12-18T05:00:54;102420.81;;;-4.51;83.92
51603;BME280;37954;51.980;5.850;2022-12-18T05:05:06;102417.56;;;-4.57;83.90
51603;BME280;37954;51.980;5.850;2022-12-18T05:09:18;102441.00;;;-4.53;84.13
51603;BME280;37954;51.980;5.850;2022-12-18T05:13:30;102436.78;;;-4.56;83.92
51603;BME280;37954;51.980;5.850;2022-12-18T05:17:42;102436.25;;;-4.63;84.19
51603;BME280;37954;51.980;5.850;2022-12-18T05:21:54;102441.50;;;-4.63;83.98
51603;BME280;37954;51.980;5.850;2022-12-18T05:26:06;102457.91;;;-4.59;83.82
51603;BME280;37954;51.980;5.850;2022-12-18T05:30:19;102455.81;;;-4.68;83.88
51603;BME280;37954;51.980;5.850;2022-12-18T05:34:30;102468.13;;;-4.70;84.06
51603;BME280;37954;51.980;5.850;2022-12-18T05:38:42;102494.09;;;-4.66;83.91
51603;BME280;37954;51.980;5.850;2022-12-18T05:42:54;102494.16;;;-4.67;84.11
51603;BME280;37954;51.980;5.850;2022-12-18T05:47:05;102485.63;;;-4.71;83.81
51603;BME280;37954;51.980;5.850;2022-12-18T05:51:19;102479.56;;;-4.71;83.81
51603;BME280;37954;51.980;5.850;2022-12-18T05:55:35;102468.22;;;-4.72;83.85
51603;BME280;37954;51.980;5.850;2022-12-18T05:59:47;102454.75;;;-4.66;84.09
51603;BME280;37954;51.980;5.850;2022-12-18T06:03:59;102433.88;;;-4.67;84.13
51603;BME280;37954;51.980;5.850;2022-12-18T06:08:12;102441.25;;;-4.58;84.19
51603;BME280;37954;51.980;5.850;2022-12-18T06:12:24;102424.75;;;-4.60;84.24
51603;BME280;37954;51.980;5.850;2022-12-18T06:16:36;102410.03;;;-4.63;84.39
51603;BME280;37954;51.980;5.850;2022-12-18T06:20:58;102428.47;;;-4.48;84.34
51603;BME280;37954;51.980;5.850;2022-12-18T06:25:10;102417.50;;;-4.55;83.99
51603;BME280;37954;51.980;5.850;2022-12-18T06:29:22;102426.63;;;-4.46;84.11
51603;BME280;37954;51.980;5.850;2022-12-18T06:33:34;102410.19;;;-4.50;84.08
51603;BME280;37954;51.980;5.850;2022-12-18T06:37:46;102410.72;;;-4.43;84.24
51603;BME280;37954;51.980;5.850;2022-12-18T06:41:57;102396.06;;;-4.47;84.31
51603;BME280;37954;51.980;5.850;2022-12-18T06:46:27;102397.78;;;-4.46;84.17
51603;BME280;37954;51.980;5.850;2022-12-18T06:50:42;102401.75;;;-4.39;84.23
51603;BME280;37954;51.980;5.850;2022-12-18T06:54:53;102401.91;;;-4.42;84.18
51603;BME280;37954;51.980;5.850;2022-12-18T06:59:05;102380.94;;;-4.42;84.06
51603;BME280;37954;51.980;5.850;2022-12-18T07:03:17;102366.38;;;-4.48;83.82
51603;BME280;37954;51.980;5.850;2022-12-18T07:07:28;102370.44;;;-4.42;84.07
51603;BME280;37954;51.980;5.850;2022-12-18T07:11:40;102368.59;;;-4.40;84.14
51603;BME280;37954;51.980;5.850;2022-12-18T07:15:51;102381.53;;;-4.37;84.29
51603;BME280;37954;51.980;5.850;2022-12-18T07:20:03;102389.03;;;-4.31;83.90
51603;BME280;37954;51.980;5.850;2022-12-18T07:24:15;102381.09;;;-4.30;83.77
51603;BME280;37954;51.980;5.850;2022-12-18T07:28:26;102384.06;;;-4.20;84.24
51603;BME280;37954;51.980;5.850;2022-12-18T07:32:38;102367.47;;;-4.21;83.80
51603;BME280;37954;51.980;5.850;2022-12-18T07:36:50;102361.13;;;-4.16;84.04
51603;BME280;37954;51.980;5.850;2022-12-18T07:41:02;102361.59;;;-4.10;83.80
51603;BME280;37954;51.980;5.850;2022-12-18T07:45:17;102350.34;;;-4.12;83.57
51603;BME280;37954;51.980;5.850;2022-12-18T07:49:28;102358.72;;;-4.05;83.86
51603;BME280;37954;51.980;5.850;2022-12-18T07:53:40;102347.03;;;-4.00;83.61
51603;BME280;37954;51.980;5.850;2022-12-18T07:57:52;102326.03;;;-4.00;83.52
51603;BME280;37954;51.980;5.850;2022-12-18T08:02:11;102321.81;;;-3.88;83.94
51603;BME280;37954;51.980;5.850;2022-12-18T08:06:23;102336.16;;;-3.79;83.66
51603;BME280;37954;51.980;5.850;2022-12-18T08:10:35;102333.69;;;-3.67;83.75
51603;BME280;37954;51.980;5.850;2022-12-18T08:14:46;102325.13;;;-3.56;83.61
51603;BME280;37954;51.980;5.850;2022-12-18T08:18:58;102320.19;;;-3.46;83.44
51603;BME280;37954;51.980;5.850;2022-12-18T08:23:09;102331.81;;;-3.36;83.61
51603;BME280;37954;51.980;5.850;2022-12-18T08:27:21;102314.34;;;-3.23;83.21
51603;BME280;37954;51.980;5.850;2022-12-18T08:31:40;102311.41;;;-3.04;83.22
51603;BME280;37954;51.980;5.850;2022-12-18T08:35:52;102305.78;;;-2.98;82.87
51603;BME280;37954;51.980;5.850;2022-12-18T08:40:04;102322.84;;;-2.91;83.17
51603;BME280;37954;51.980;5.850;2022-12-18T08:44:16;102313.63;;;-2.84;82.87
51603;BME280;37954;51.980;5.850;2022-12-18T08:48:47;102311.66;;;-2.81;83.05
51603;BME280;37954;51.980;5.850;2022-12-18T08:52:59;102316.13;;;-2.68;82.43
51603;BME280;37954;51.980;5.850;2022-12-18T08:57:11;102327.16;;;-2.49;81.95
51603;BME280;37954;51.980;5.850;2022-12-18T09:01:23;102311.91;;;-2.44;81.57
51603;BME280;37954;51.980;5.850;2022-12-18T09:05:35;102312.88;;;-2.32;82.03
51603;BME280;37954;51.980;5.850;2022-12-18T09:09:47;102332.81;;;-2.16;81.82
51603;BME280;37954;51.980;5.850;2022-12-18T09:14:00;102317.50;;;-1.96;81.40
51603;BME280;37954;51.980;5.850;2022-12-18T09:18:12;102307.50;;;-1.79;81.30
51603;BME280;37954;51.980;5.850;2022-12-18T09:22:25;102317.63;;;-1.60;80.57
51603;BME280;37954;51.980;5.850;2022-12-18T09:26:36;102304.84;;;-1.53;80.57
51603;BME280;37954;51.980;5.850;2022-12-18T09:30:49;102309.28;;;-1.41;79.46
51603;BME280;37954;51.980;5.850;2022-12-18T09:35:01;102306.84;;;-1.31;78.64
51603;BME280;37954;51.980;5.850;2022-12-18T09:39:13;102302.63;;;-1.21;78.39
51603;BME280;37954;51.980;5.850;2022-12-18T09:43:40;102295.94;;;-1.14;78.09
51603;BME280;37954;51.980;5.850;2022-12-18T09:47:54;102296.16;;;-1.04;78.35
51603;BME280;37954;51.980;5.850;2022-12-18T09:52:26;102290.75;;;-1.03;77.29
51603;BME280;37954;51.980;5.850;2022-12-18T09:56:41;102300.94;;;-0.86;77.29
51603;BME280;37954;51.980;5.850;2022-12-18T10:00:55;102290.63;;;-0.89;76.68
51603;BME280;37954;51.980;5.850;2022-12-18T10:05:11;102266.78;;;-0.87;76.47
51603;BME280;37954;51.980;5.850;2022-12-18T10:10:07;102285.00;;;-0.84;75.78
51603;BME280;37954;51.980;5.850;2022-12-18T10:23:54;102268.66;;;-0.65;75.38
51603;BME280;37954;51.980;5.850;2022-12-18T10:28:13;102237.63;;;-0.62;75.10
51603;BME280;37954;51.980;5.850;2022-12-18T10:32:27;102249.16;;;-0.52;74.69
51603;BME280;37954;51.980;5.850;2022-12-18T10:36:40;102247.75;;;-0.45;74.59
51603;BME280;37954;51.980;5.850;2022-12-18T10:45:09;102240.56;;;-0.43;73.10
51603;BME280;37954;51.980;5.850;2022-12-18T10:49:30;102239.28;;;-0.37;73.37
51603;BME280;37954;51.980;5.850;2022-12-18T10:53:42;102219.97;;;-0.38;72.07
51603;BME280;37954;51.980;5.850;2022-12-18T10:58:15;102205.44;;;-0.32;72.28
51603;BME280;37954;51.980;5.850;2022-12-18T11:02:37;102218.56;;;-0.19;72.15
51603;BME280;37954;51.980;5.850;2022-12-18T11:07:00;102200.19;;;-0.21;72.14
51603;BME280;37954;51.980;5.850;2022-12-18T11:11:22;102198.03;;;-0.16;72.29
51603;BME280;37954;51.980;5.850;2022-12-18T11:15:34;102196.72;;;0.01;72.68
51603;BME280;37954;51.980;5.850;2022-12-18T11:19:52;102200.97;;;0.15;71.96
51603;BME280;37954;51.980;5.850;2022-12-18T11:24:17;102181.97;;;0.10;71.73
51603;BME280;37954;51.980;5.850;2022-12-18T11:28:40;102172.97;;;0.23;71.30
51603;BME280;37954;51.980;5.850;2022-12-18T11:32:56;102155.78;;;0.18;71.22
51603;BME280;37954;51.980;5.850;2022-12-18T11:37:11;102150.50;;;0.18;71.64
51603;BME280;37954;51.980;5.850;2022-12-18T11:42:05;102172.25;;;0.32;71.45
51603;BME280;37954;51.980;5.850;2022-12-18T11:46:39;102153.41;;;0.26;71.40
51603;BME280;37954;51.980;5.850;2022-12-18T11:50:56;102175.34;;;0.38;70.89
51603;BME280;37954;51.980;5.850;2022-12-18T11:55:47;102164.91;;;0.47;71.50
51603;BME280;37954;51.980;5.850;2022-12-18T12:00:15;102163.09;;;0.48;71.09
51603;BME280;37954;51.980;5.850;2022-12-18T12:09:34;102119.63;;;0.52;70.76
51603;BME280;37954;51.980;5.850;2022-12-18T12:23:06;102101.69;;;0.55;70.24
51603;BME280;37954;51.980;5.850;2022-12-18T12:41:13;102098.72;;;0.81;69.92
51603;BME280;37954;51.980;5.850;2022-12-18T12:46:10;102088.75;;;0.73;69.86
51603;BME280;37954;51.980;5.850;2022-12-18T12:50:23;102084.97;;;0.87;69.09
51603;BME280;37954;51.980;5.850;2022-12-18T12:54:35;102064.59;;;0.78;69.06
51603;BME280;37954;51.980;5.850;2022-12-18T13:00:05;102070.22;;;0.84;69.04
51603;BME280;37954;51.980;5.850;2022-12-18T13:03:57;102061.31;;;0.85;68.75
51603;BME280;37954;51.980;5.850;2022-12-18T13:08:25;102052.66;;;0.83;68.81
51603;BME280;37954;51.980;5.850;2022-12-18T13:21:33;102053.09;;;0.88;68.55
51603;BME280;37954;51.980;5.850;2022-12-18T13:25:45;102028.66;;;0.75;68.53
51603;BME280;37954;51.980;5.850;2022-12-18T13:29:58;102020.34;;;0.80;68.75
51603;BME280;37954;51.980;5.850;2022-12-18T13:34:17;102040.72;;;0.89;68.20
51603;BME280;37954;51.980;5.850;2022-12-18T13:43:47;102047.56;;;0.91;67.73
51603;BME280;37954;51.980;5.850;2022-12-18T13:47:59;102024.00;;;0.88;68.04
51603;BME280;37954;51.980;5.850;2022-12-18T13:52:20;101994.84;;;0.79;68.16
51603;BME280;37954;51.980;5.850;2022-12-18T13:56:33;102008.72;;;0.92;67.79
51603;BME280;37954;51.980;5.850;2022-12-18T14:00:46;102008.47;;;0.95;68.19
51603;BME280;37954;51.980;5.850;2022-12-18T14:04:58;101991.13;;;0.81;67.90
51603;BME280;37954;51.980;5.850;2022-12-18T14:09:14;101997.44;;;0.90;67.57
51603;BME280;37954;51.980;5.850;2022-12-18T14:13:36;101979.03;;;0.88;67.63
51603;BME280;37954;51.980;5.850;2022-12-18T14:17:50;101990.00;;;1.04;67.93
51603;BME280;37954;51.980;5.850;2022-12-18T14:22:02;101973.50;;;0.91;67.74
51603;BME280;37954;51.980;5.850;2022-12-18T14:30:42;101973.44;;;1.02;67.51
51603;BME280;37954;51.980;5.850;2022-12-18T14:34:54;101980.78;;;0.99;67.20
51603;BME280;37954;51.980;5.850;2022-12-18T14:39:16;101951.69;;;0.99;66.95
51603;BME280;37954;51.980;5.850;2022-12-18T14:43:32;101941.03;;;0.89;66.32
51603;BME280;37954;51.980;5.850;2022-12-18T14:47:44;101938.81;;;0.85;66.17
51603;BME280;37954;51.980;5.850;2022-12-18T14:52:05;101950.16;;;0.96;66.21
51603;BME280;37954;51.980;5.850;2022-12-18T14:56:24;101945.63;;;0.87;66.07
51603;BME280;37954;51.980;5.850;2022-12-18T15:00:44;101938.53;;;0.88;66.03
51603;BME280;37954;51.980;5.850;2022-12-18T15:05:03;101924.41;;;0.98;66.33
51603;BME280;37954;51.980;5.850;2022-12-18T15:09:25;101936.31;;;1.14;66.06
51603;BME280;37954;51.980;5.850;2022-12-18T15:13:37;101925.25;;;0.99;65.70
51603;BME280;37954;51.980;5.850;2022-12-18T15:17:56;101929.81;;;0.97;65.15
51603;BME280;37954;51.980;5.850;2022-12-18T15:22:19;101926.34;;;0.96;65.69
51603;BME280;37954;51.980;5.850;2022-12-18T15:26:36;101924.47;;;0.87;65.98
51603;BME280;37954;51.980;5.850;2022-12-18T15:31:20;101944.66;;;0.88;65.49
51603;BME280;37954;51.980;5.850;2022-12-18T15:35:32;101935.63;;;0.91;65.93
51603;BME280;37954;51.980;5.850;2022-12-18T15:39:44;101913.47;;;0.82;65.79
51603;BME280;37954;51.980;5.850;2022-12-18T15:43:55;101915.00;;;0.85;66.10
51603;BME280;37954;51.980;5.850;2022-12-18T15:48:27;101918.31;;;0.77;65.90
51603;BME280;37954;51.980;5.850;2022-12-18T15:52:43;101926.69;;;0.82;66.20
51603;BME280;37954;51.980;5.850;2022-12-18T15:56:55;101921.06;;;0.76;66.09
51603;BME280;37954;51.980;5.850;2022-12-18T16:01:27;101931.00;;;0.83;66.60
51603;BME280;37954;51.980;5.850;2022-12-18T16:05:40;101925.13;;;0.80;66.59
51603;BME280;37954;51.980;5.850;2022-12-18T16:09:52;101925.25;;;0.78;66.48
51603;BME280;37954;51.980;5.850;2022-12-18T16:18:32;101913.00;;;0.77;66.74
51603;BME280;37954;51.980;5.850;2022-12-18T16:22:45;101900.16;;;0.73;66.54
51603;BME280;37954;51.980;5.850;2022-12-18T16:26:58;101880.56;;;0.75;66.61
51603;BME280;37954;51.980;5.850;2022-12-18T16:31:11;101877.88;;;0.65;66.26
51603;BME280;37954;51.980;5.850;2022-12-18T16:35:23;101875.81;;;0.69;66.49
51603;BME280;37954;51.980;5.850;2022-12-18T16:39:36;101873.59;;;0.74;66.76
51603;BME280;37954;51.980;5.850;2022-12-18T16:43:48;101860.59;;;0.61;66.70
51603;BME280;37954;51.980;5.850;2022-12-18T16:48:05;101864.25;;;0.70;66.21
51603;BME280;37954;51.980;5.850;2022-12-18T16:52:17;101861.31;;;0.63;66.40
51603;BME280;37954;51.980;5.850;2022-12-18T16:56:30;101854.22;;;0.64;66.49
51603;BME280;37954;51.980;5.850;2022-12-18T17:00:42;101856.31;;;0.70;66.19
51603;BME280;37954;51.980;5.850;2022-12-18T17:04:55;101853.66;;;0.70;66.75
51603;BME280;37954;51.980;5.850;2022-12-18T17:09:18;101841.13;;;0.62;66.92
51603;BME280;37954;51.980;5.850;2022-12-18T17:13:35;101837.66;;;0.62;66.71
51603;BME280;37954;51.980;5.850;2022-12-18T17:17:46;101834.88;;;0.63;66.76
51603;BME280;37954;51.980;5.850;2022-12-18T17:21:58;101835.31;;;0.68;66.84
51603;BME280;37954;51.980;5.850;2022-12-18T17:26:11;101831.66;;;0.60;66.96
51603;BME280;37954;51.980;5.850;2022-12-18T17:30:23;101845.72;;;0.60;67.28
51603;BME280;37954;51.980;5.850;2022-12-18T17:34:34;101849.78;;;0.64;66.87
51603;BME280;37954;51.980;5.850;2022-12-18T17:38:52;101849.22;;;0.70;67.45
51603;BME280;37954;51.980;5.850;2022-12-18T17:43:04;101836.16;;;0.69;67.50
51603;BME280;37954;51.980;5.850;2022-12-18T17:47:15;101835.97;;;0.61;67.25
51603;BME280;37954;51.980;5.850;2022-12-18T17:51:28;101848.13;;;0.73;67.43
51603;BME280;37954;51.980;5.850;2022-12-18T17:55:40;101842.13;;;0.71;67.58
51603;BME280;37954;51.980;5.850;2022-12-18T17:59:52;101861.22;;;0.75;67.94
51603;BME280;37954;51.980;5.850;2022-12-18T18:04:04;101843.25;;;0.68;68.06
51603;BME280;37954;51.980;5.850;2022-12-18T18:08:16;101846.91;;;0.77;67.80
51603;BME280;37954;51.980;5.850;2022-12-18T18:12:27;101844.91;;;0.69;68.06
51603;BME280;37954;51.980;5.850;2022-12-18T18:16:57;101859.41;;;0.75;68.19
51603;BME280;37954;51.980;5.850;2022-12-18T18:21:15;101851.47;;;0.75;68.45
51603;BME280;37954;51.980;5.850;2022-12-18T18:25:27;101841.56;;;0.67;67.77
51603;BME280;37954;51.980;5.850;2022-12-18T18:29:39;101844.22;;;0.67;68.40
51603;BME280;37954;51.980;5.850;2022-12-18T18:33:51;101842.81;;;0.63;68.51
51603;BME280;37954;51.980;5.850;2022-12-18T18:38:02;101847.00;;;0.66;68.48
51603;BME280;37954;51.980;5.850;2022-12-18T18:42:14;101836.94;;;0.60;68.70
51603;BME280;37954;51.980;5.850;2022-12-18T18:46:26;101850.34;;;0.68;68.46
51603;BME280;37954;51.980;5.850;2022-12-18T18:50:38;101842.13;;;0.71;68.83
51603;BME280;37954;51.980;5.850;2022-12-18T18:54:49;101848.84;;;0.75;68.79
51603;BME280;37954;51.980;5.850;2022-12-18T18:59:21;101840.19;;;0.73;68.83
51603;BME280;37954;51.980;5.850;2022-12-18T19:03:42;101830.72;;;0.70;68.91
51603;BME280;37954;51.980;5.850;2022-12-18T19:07:54;101824.19;;;0.75;69.18
51603;BME280;37954;51.980;5.850;2022-12-18T19:12:06;101815.28;;;0.76;69.25
51603;BME280;37954;51.980;5.850;2022-12-18T19:16:37;101807.63;;;0.73;69.15
51603;BME280;37954;51.980;5.850;2022-12-18T19:20:58;101830.94;;;0.88;69.50
51603;BME280;37954;51.980;5.850;2022-12-18T19:25:10;101810.31;;;0.82;69.85
51603;BME280;37954;51.980;5.850;2022-12-18T19:29:21;101814.66;;;0.83;69.62
51603;BME280;37954;51.980;5.850;2022-12-18T19:33:38;101820.47;;;0.87;69.59
51603;BME280;37954;51.980;5.850;2022-12-18T19:38:09;101813.81;;;0.83;69.57
51603;BME280;37954;51.980;5.850;2022-12-18T19:42:21;101825.09;;;0.85;69.71
51603;BME280;37954;51.980;5.850;2022-12-18T19:46:43;101839.00;;;0.87;69.89
51603;BME280;37954;51.980;5.850;2022-12-18T19:50:56;101834.16;;;0.92;69.68
51603;BME280;37954;51.980;5.850;2022-12-18T19:55:08;101826.22;;;0.92;69.62
51603;BME280;37954;51.980;5.850;2022-12-18T19:59:22;101814.66;;;0.93;69.66
51603;BME280;37954;51.980;5.850;2022-12-18T20:03:37;101829.16;;;0.98;69.75
51603;BME280;37954;51.980;5.850;2022-12-18T20:07:57;101817.03;;;0.96;70.14
51603;BME280;37954;51.980;5.850;2022-12-18T20:12:23;101829.63;;;1.03;70.10
51603;BME280;37954;51.980;5.850;2022-12-18T20:16:39;101809.94;;;0.96;70.24
51603;BME280;37954;51.980;5.850;2022-12-18T20:20:52;101796.53;;;0.88;71.07
51603;BME280;37954;51.980;5.850;2022-12-18T20:25:06;101809.50;;;0.91;71.19
51603;BME280;37954;51.980;5.850;2022-12-18T20:29:18;101795.88;;;0.86;71.63
51603;BME280;37954;51.980;5.850;2022-12-18T20:33:30;101798.19;;;0.80;72.04
51603;BME280;37954;51.980;5.850;2022-12-18T20:37:42;101823.69;;;0.81;72.41
51603;BME280;37954;51.980;5.850;2022-12-18T20:42:02;101822.84;;;0.80;72.99
51603;BME280;37954;51.980;5.850;2022-12-18T20:46:15;101825.94;;;0.85;73.25
51603;BME280;37954;51.980;5.850;2022-12-18T20:51:03;101829.41;;;0.86;74.14
51603;BME280;37954;51.980;5.850;2022-12-18T20:55:37;101821.94;;;0.70;75.68
51603;BME280;37954;51.980;5.850;2022-12-18T21:00:13;101816.97;;;0.77;76.36
51603;BME280;37954;51.980;5.850;2022-12-18T21:04:34;101809.28;;;0.74;76.58
51603;BME280;37954;51.980;5.850;2022-12-18T21:08:51;101789.94;;;0.63;76.99
51603;BME280;37954;51.980;5.850;2022-12-18T21:13:09;101788.41;;;0.70;77.78
51603;BME280;37954;51.980;5.850;2022-12-18T21:17:36;101775.03;;;0.62;77.85
51603;BME280;37954;51.980;5.850;2022-12-18T21:22:04;101738.78;;;0.44;78.24
51603;BME280;37954;51.980;5.850;2022-12-18T21:26:31;101784.78;;;0.72;78.70
51603;BME280;37954;51.980;5.850;2022-12-18T21:30:47;101754.13;;;0.50;79.36
51603;BME280;37954;51.980;5.850;2022-12-18T21:35:11;101733.63;;;0.42;79.52
51603;BME280;37954;51.980;5.850;2022-12-18T21:39:24;101744.38;;;0.50;79.84
51603;BME280;37954;51.980;5.850;2022-12-18T21:43:43;101759.16;;;0.62;79.68
51603;BME280;37954;51.980;5.850;2022-12-18T21:48:20;101749.03;;;0.67;80.12
51603;BME280;37954;51.980;5.850;2022-12-18T21:52:46;101741.25;;;0.66;79.97
51603;BME280;37954;51.980;5.850;2022-12-18T21:57:22;101722.75;;;0.66;80.82
51603;BME280;37954;51.980;5.850;2022-12-18T22:01:41;101727.88;;;0.67;81.62
51603;BME280;37954;51.980;5.850;2022-12-18T22:06:00;101721.47;;;0.70;81.98
51603;BME280;37954;51.980;5.850;2022-12-18T22:10:26;101723.56;;;0.66;82.82
51603;BME280;37954;51.980;5.850;2022-12-18T22:14:59;101719.38;;;0.64;83.10
51603;BME280;37954;51.980;5.850;2022-12-18T22:19:20;101719.25;;;0.65;83.89
51603;BME280;37954;51.980;5.850;2022-12-18T22:24:03;101699.59;;;0.58;84.30
51603;BME280;37954;51.980;5.850;2022-12-18T22:28:33;101700.47;;;0.68;83.82
51603;BME280;37954;51.980;5.850;2022-12-18T22:33:07;101686.81;;;0.63;84.27
51603;BME280;37954;51.980;5.850;2022-12-18T22:37:30;101678.63;;;0.66;85.57
51603;BME280;37954;51.980;5.850;2022-12-18T22:41:52;101666.50;;;0.64;85.70
51603;BME280;37954;51.980;5.850;2022-12-18T22:46:16;101654.53;;;0.69;85.45
51603;BME280;37954;51.980;5.850;2022-12-18T22:50:38;101627.81;;;0.63;85.60
51603;BME280;37954;51.980;5.850;2022-12-18T22:54:54;101629.38;;;0.65;85.76
51603;BME280;37954;51.980;5.850;2022-12-18T22:59:14;101646.19;;;0.74;86.19
51603;BME280;37954;51.980;5.850;2022-12-18T23:03:34;101591.94;;;0.51;86.10
51603;BME280;37954;51.980;5.850;2022-12-18T23:07:56;101587.03;;;0.56;86.49
51603;BME280;37954;51.980;5.850;2022-12-18T23:12:21;101621.47;;;0.85;86.49
51603;BME280;37954;51.980;5.850;2022-12-18T23:16:48;101593.31;;;0.74;86.27
51603;BME280;37954;51.980;5.850;2022-12-18T23:21:11;101569.25;;;0.67;85.98
51603;BME280;37954;51.980;5.850;2022-12-18T23:25:26;101582.06;;;0.82;86.31
51603;BME280;37954;51.980;5.850;2022-12-18T23:29:53;101576.78;;;0.82;86.59
51603;BME280;37954;51.980;5.850;2022-12-18T23:34:12;101556.88;;;0.68;86.33
51603;BME280;37954;51.980;5.850;2022-12-18T23:38:31;101552.69;;;0.65;86.37
51603;BME280;37954;51.980;5.850;2022-12-18T23:42:52;101556.56;;;0.71;86.55
51603;BME280;37954;51.980;5.850;2022-12-18T23:47:37;101504.53;;;0.52;86.74
51603;BME280;37954;51.980;5.850;2022-12-18T23:51:53;101518.34;;;0.65;87.12
51603;BME280;37954;51.980;5.850;2022-12-18T23:56:07;101558.66;;;0.87;87.16
